Metropolis, IL

11:57 AM CST on February 07, 2016 (GMT -0600)
Grahamville | | Change Station
CLOSE
Current Station
Personal Weather Station
Location: West Paducah, KY
Elevation: 390 ft
Nearby Weather Stations
Active Advisory: Flood Warning

Elev 390 ft 37.11 °N, 88.78 °W | Updated 14 minutes ago

Clear
Clear
53.4 °F
Feels Like 53.4 °F
N
16.0
Wind Variable Wind from WSW
Gusts 23.0 mph

Today
High -- | Low -- °F
--% Chance of Precip.
Yesterday
High -- | Low -- °F
Precip. -- in
Pressure 30.07 in
Visibility 10.0 miles
Clouds Clear
Dew Point 26 °F
Humidity 35%
Rainfall 0.00 in
Snow Depth Not available.
6:52 AM 5:25 PM
Waning Crescent, 1% visible
METAR KM30 071735Z AUTO 23013G20KT 10SM CLR 13/M01 A3007 RMK AO2 T01251012
Pressure 30.07 in
Visibility 10.0 miles
Clouds Clear
Dew Point 26 °F
Humidity 35%
Rainfall 0.00 in
Snow Depth Not available.
6:52 AM 5:25 PM
Waning Crescent, 1% visible
METAR KM30 071735Z AUTO 23013G20KT 10SM CLR 13/M01 A3007 RMK AO2 T01251012

10-Day Weather Forecast

Almanac

Astronomy

Feb. 07, 2016 Rise Set
Actual Time
Civil Twilight
Nautical Twilight
Astronomical Twilight
Moon
Length of Visible Light
Length of Day
Tomorrow will be .
, % of the Moon is Illuminated

Today's Extremes

State Highs State Lows

Community

WunderPhotos

Upload Photos

1,891,248 photos uploaded!

WunderBlog® & News

Nearby

Air Quality

  Air Quality AQ Index Pollutant
Not available.

Snow Depth

Station Depth Elevation

Earthquake Activity

City Distance Mag. Time & Date
Minimum magnitude displayed is 2.5.

Coastal Water Temperatures

Place Temperature

Stations

Nearby Weather Stations

Station Location Temp. Windchill Dew Point Humidity Wind Precip. Elev Updated Type
                   

Watches & Warnings

Flood Warning
Issued: 10:36 AM CST Feb. 7, 2016 – National Weather Service

The Flood Warning continues for
the Ohio River at Brookport dam.
* From Monday morning until further notice.
* At 8:00 am Sunday the stage was 36.3 feet.
* Flood stage is 37.0 feet.
* Minor flooding is forecast.
* Forecast... rise above flood stage by tomorrow morning and
continue to rise to near 38.0 feet by Wednesday morning.
* Impact... at 37.0 feet... minor flooding occurs affecting mainly
agricultural bottomland and low lying areas.


Lat... Lon 3727 8884 3714 8888 3709 8872 3715 8861





1036 am CST sun Feb 7 2016

The Flood Warning continues for
the Ohio River at Grand Chain dam.
* From this afternoon until further notice.
* At 8:00 am Sunday the stage was 41.7 feet.
* Flood stage is 42.0 feet.
* Minor flooding is forecast.
* Forecast... rise above flood stage tonight and continue to rise
to near 43.5 feet by Tuesday morning.
* Impact... at 42.0 feet... this will cause minor flooding of mainly low
lying areas.


Lat... Lon 3727 8908 3717 8916 3709 8907 3714 8888
      3727 8884